KELO

Details ICAO KELO (LYU)
Name ELY MUNI
Region United States
Timezone America/Chicago (UTC-5.0)
Plans Departing 2
Arriving 5
Stats Elevation 1,455 ft / 443 m (AMSL)
Location 47.824553° -91.830724°
Runways 1
Magnetic Variation 1.424° W
Sunrise 2018-05-26 10:18:45 UTC / 2018-05-26 05:18:45 Local
Sunset 2018-05-27 01:52:54 UTC / 2018-05-26 20:52:54 Local
Advertisement - Login to hide

Runways

ID Width Length Bearing (true) Bearing (mag) Surface Threshold Offset Overrun Length
12 100 ft / 30 m 5,588 ft / 1,703 m 119.80° 121.22° Asphalt 0 ft / 0 m 0 ft / 0 m
30 100 ft / 30 m 5,588 ft / 1,703 m 299.81° 301.23° Asphalt 0 ft / 0 m 0 ft / 0 m

Map

Weather


0- 5 10 15 20 25 30 35+ Temperature / ° C

Clouds and Precipitation
Forecast for 2018-05-26 06:00 UTC. Updated 6 hours ago

Ground ~20,000 ft ~40,000 ft Winds

METAR

KELO 261035Z AUTO 00000KT 10SM CLR 15/14 A2963 RMK AO2

TAF

Not found

Frequencies

Recorded 132.02 MHz AWOS 3
Unicom 122.80 MHz CTAF/UNICOM
Warning: Do not use this data for real-world aviation or navigation. No guarantee of current accuracy is given.